sensor_id;sensor_type;location;lat;lon;timestamp;P1;durP1;ratioP1;P2;durP2;ratioP2
11078;SDS011;5592;49.234;7.268;2022-08-21T00:01:39;12.03;;;5.10;;
11078;SDS011;5592;49.234;7.268;2022-08-21T00:04:08;10.33;;;4.50;;
11078;SDS011;5592;49.234;7.268;2022-08-21T00:06:34;7.97;;;4.90;;
11078;SDS011;5592;49.234;7.268;2022-08-21T00:09:01;11.17;;;4.77;;
11078;SDS011;5592;49.234;7.268;2022-08-21T00:11:29;4.53;;;4.00;;
11078;SDS011;5592;49.234;7.268;2022-08-21T00:13:54;9.20;;;4.77;;
11078;SDS011;5592;49.234;7.268;2022-08-21T00:16:20;9.10;;;4.40;;
11078;SDS011;5592;49.234;7.268;2022-08-21T00:18:46;15.83;;;6.20;;
11078;SDS011;5592;49.234;7.268;2022-08-21T00:21:12;7.70;;;4.47;;
11078;SDS011;5592;49.234;7.268;2022-08-21T00:23:39;6.77;;;4.93;;
11078;SDS011;5592;49.234;7.268;2022-08-21T00:26:04;9.70;;;4.70;;
11078;SDS011;5592;49.234;7.268;2022-08-21T00:28:31;7.83;;;4.93;;
11078;SDS011;5592;49.234;7.268;2022-08-21T00:30:57;11.90;;;4.80;;
11078;SDS011;5592;49.234;7.268;2022-08-21T00:33:24;7.80;;;4.90;;
11078;SDS011;5592;49.234;7.268;2022-08-21T00:35:50;14.93;;;5.70;;
11078;SDS011;5592;49.234;7.268;2022-08-21T00:38:17;10.33;;;5.20;;
11078;SDS011;5592;49.234;7.268;2022-08-21T00:40:55;5.90;;;4.60;;
11078;SDS011;5592;49.234;7.268;2022-08-21T00:43:25;8.77;;;5.17;;
11078;SDS011;5592;49.234;7.268;2022-08-21T00:45:54;6.70;;;4.63;;
11078;SDS011;5592;49.234;7.268;2022-08-21T00:48:20;7.33;;;4.80;;
11078;SDS011;5592;49.234;7.268;2022-08-21T00:50:52;15.23;;;5.40;;
11078;SDS011;5592;49.234;7.268;2022-08-21T00:53:29;7.93;;;4.23;;
11078;SDS011;5592;49.234;7.268;2022-08-21T00:55:55;10.37;;;5.50;;
11078;SDS011;5592;49.234;7.268;2022-08-21T00:58:22;7.23;;;4.70;;
11078;SDS011;5592;49.234;7.268;2022-08-21T01:00:49;12.03;;;5.73;;
11078;SDS011;5592;49.234;7.268;2022-08-21T01:03:17;7.90;;;4.67;;
11078;SDS011;5592;49.234;7.268;2022-08-21T01:05:46;10.63;;;5.37;;
11078;SDS011;5592;49.234;7.268;2022-08-21T01:08:13;8.53;;;5.40;;
11078;SDS011;5592;49.234;7.268;2022-08-21T01:10:40;8.10;;;5.70;;
11078;SDS011;5592;49.234;7.268;2022-08-21T01:13:06;7.07;;;5.03;;
11078;SDS011;5592;49.234;7.268;2022-08-21T01:15:35;12.33;;;5.60;;
11078;SDS011;5592;49.234;7.268;2022-08-21T01:18:05;6.93;;;5.07;;
11078;SDS011;5592;49.234;7.268;2022-08-21T01:20:35;8.17;;;5.20;;
11078;SDS011;5592;49.234;7.268;2022-08-21T01:23:03;9.40;;;5.60;;
11078;SDS011;5592;49.234;7.268;2022-08-21T01:25:30;9.80;;;4.93;;
11078;SDS011;5592;49.234;7.268;2022-08-21T01:27:57;12.70;;;5.87;;
11078;SDS011;5592;49.234;7.268;2022-08-21T01:30:29;9.43;;;5.20;;
11078;SDS011;5592;49.234;7.268;2022-08-21T01:32:59;16.27;;;5.57;;
11078;SDS011;5592;49.234;7.268;2022-08-21T01:35:25;6.13;;;4.93;;
11078;SDS011;5592;49.234;7.268;2022-08-21T01:37:50;10.27;;;5.73;;
11078;SDS011;5592;49.234;7.268;2022-08-21T01:40:17;9.63;;;5.80;;
11078;SDS011;5592;49.234;7.268;2022-08-21T01:42:44;11.50;;;5.50;;
11078;SDS011;5592;49.234;7.268;2022-08-21T01:45:11;8.33;;;4.80;;
11078;SDS011;5592;49.234;7.268;2022-08-21T01:47:37;10.43;;;5.93;;
11078;SDS011;5592;49.234;7.268;2022-08-21T01:50:06;11.67;;;5.60;;
11078;SDS011;5592;49.234;7.268;2022-08-21T01:52:34;10.03;;;5.63;;
11078;SDS011;5592;49.234;7.268;2022-08-21T01:55:00;12.73;;;6.30;;
11078;SDS011;5592;49.234;7.268;2022-08-21T01:57:25;9.10;;;5.40;;
11078;SDS011;5592;49.234;7.268;2022-08-21T01:59:54;10.93;;;5.60;;
11078;SDS011;5592;49.234;7.268;2022-08-21T02:02:19;8.20;;;5.67;;
11078;SDS011;5592;49.234;7.268;2022-08-21T02:04:45;9.30;;;6.00;;
11078;SDS011;5592;49.234;7.268;2022-08-21T02:07:11;13.13;;;6.70;;
11078;SDS011;5592;49.234;7.268;2022-08-21T02:09:36;15.83;;;6.07;;
11078;SDS011;5592;49.234;7.268;2022-08-21T02:12:02;14.03;;;6.80;;
11078;SDS011;5592;49.234;7.268;2022-08-21T02:14:28;10.93;;;6.43;;
11078;SDS011;5592;49.234;7.268;2022-08-21T02:16:54;11.07;;;6.03;;
11078;SDS011;5592;49.234;7.268;2022-08-21T02:19:19;7.17;;;5.57;;
11078;SDS011;5592;49.234;7.268;2022-08-21T02:21:45;11.30;;;6.70;;
11078;SDS011;5592;49.234;7.268;2022-08-21T02:24:11;9.50;;;6.20;;
11078;SDS011;5592;49.234;7.268;2022-08-21T02:26:37;13.70;;;6.17;;
11078;SDS011;5592;49.234;7.268;2022-08-21T02:29:04;10.47;;;5.67;;
11078;SDS011;5592;49.234;7.268;2022-08-21T02:31:30;9.50;;;6.00;;
11078;SDS011;5592;49.234;7.268;2022-08-21T02:33:56;10.90;;;5.97;;
11078;SDS011;5592;49.234;7.268;2022-08-21T02:36:22;11.43;;;6.60;;
11078;SDS011;5592;49.234;7.268;2022-08-21T02:38:47;11.00;;;6.50;;
11078;SDS011;5592;49.234;7.268;2022-08-21T02:41:17;16.27;;;6.47;;
11078;SDS011;5592;49.234;7.268;2022-08-21T02:43:45;8.40;;;5.93;;
11078;SDS011;5592;49.234;7.268;2022-08-21T02:46:12;12.03;;;6.37;;
11078;SDS011;5592;49.234;7.268;2022-08-21T02:48:38;10.93;;;6.43;;
11078;SDS011;5592;49.234;7.268;2022-08-21T02:51:05;13.37;;;6.83;;
11078;SDS011;5592;49.234;7.268;2022-08-21T02:53:33;14.67;;;6.53;;
11078;SDS011;5592;49.234;7.268;2022-08-21T02:56:01;7.40;;;5.40;;
11078;SDS011;5592;49.234;7.268;2022-08-21T02:58:33;7.87;;;5.87;;
11078;SDS011;5592;49.234;7.268;2022-08-21T03:01:02;8.80;;;6.53;;
11078;SDS011;5592;49.234;7.268;2022-08-21T03:03:28;11.97;;;6.20;;
11078;SDS011;5592;49.234;7.268;2022-08-21T03:05:54;10.10;;;6.10;;
11078;SDS011;5592;49.234;7.268;2022-08-21T03:08:21;11.70;;;6.13;;
11078;SDS011;5592;49.234;7.268;2022-08-21T03:10:49;12.07;;;6.53;;
11078;SDS011;5592;49.234;7.268;2022-08-21T03:13:16;12.23;;;6.10;;
11078;SDS011;5592;49.234;7.268;2022-08-21T03:15:43;9.30;;;5.80;;
11078;SDS011;5592;49.234;7.268;2022-08-21T03:18:10;11.70;;;6.77;;
11078;SDS011;5592;49.234;7.268;2022-08-21T03:20:36;14.67;;;6.60;;
11078;SDS011;5592;49.234;7.268;2022-08-21T03:23:04;10.77;;;6.20;;
11078;SDS011;5592;49.234;7.268;2022-08-21T03:25:31;12.97;;;7.10;;
11078;SDS011;5592;49.234;7.268;2022-08-21T03:27:57;12.73;;;7.27;;
11078;SDS011;5592;49.234;7.268;2022-08-21T03:30:24;12.20;;;6.70;;
11078;SDS011;5592;49.234;7.268;2022-08-21T03:32:50;11.07;;;7.00;;
11078;SDS011;5592;49.234;7.268;2022-08-21T03:35:16;12.93;;;7.20;;
11078;SDS011;5592;49.234;7.268;2022-08-21T03:37:42;11.23;;;7.50;;
11078;SDS011;5592;49.234;7.268;2022-08-21T03:40:16;11.50;;;6.47;;
11078;SDS011;5592;49.234;7.268;2022-08-21T03:42:43;12.53;;;6.27;;
11078;SDS011;5592;49.234;7.268;2022-08-21T03:45:10;10.37;;;5.90;;
11078;SDS011;5592;49.234;7.268;2022-08-21T03:47:35;12.77;;;6.03;;
11078;SDS011;5592;49.234;7.268;2022-08-21T03:50:02;10.50;;;6.50;;
11078;SDS011;5592;49.234;7.268;2022-08-21T03:52:29;14.50;;;7.00;;
11078;SDS011;5592;49.234;7.268;2022-08-21T03:54:55;10.77;;;7.00;;
11078;SDS011;5592;49.234;7.268;2022-08-21T03:57:20;9.53;;;6.57;;
11078;SDS011;5592;49.234;7.268;2022-08-21T03:59:46;9.93;;;6.30;;
11078;SDS011;5592;49.234;7.268;2022-08-21T04:02:12;9.93;;;6.07;;
11078;SDS011;5592;49.234;7.268;2022-08-21T04:04:41;20.53;;;7.40;;
11078;SDS011;5592;49.234;7.268;2022-08-21T04:07:06;8.70;;;6.53;;
11078;SDS011;5592;49.234;7.268;2022-08-21T04:09:32;12.70;;;6.67;;
11078;SDS011;5592;49.234;7.268;2022-08-21T04:11:58;16.90;;;7.27;;
11078;SDS011;5592;49.234;7.268;2022-08-21T04:14:25;12.20;;;7.27;;
11078;SDS011;5592;49.234;7.268;2022-08-21T04:16:50;11.63;;;7.00;;
11078;SDS011;5592;49.234;7.268;2022-08-21T04:19:16;14.20;;;6.90;;
11078;SDS011;5592;49.234;7.268;2022-08-21T04:21:42;14.50;;;6.60;;
11078;SDS011;5592;49.234;7.268;2022-08-21T04:24:08;10.67;;;6.40;;
11078;SDS011;5592;49.234;7.268;2022-08-21T04:26:35;13.10;;;6.80;;
11078;SDS011;5592;49.234;7.268;2022-08-21T04:29:02;8.63;;;6.47;;
11078;SDS011;5592;49.234;7.268;2022-08-21T04:31:31;10.33;;;5.73;;
11078;SDS011;5592;49.234;7.268;2022-08-21T04:33:57;8.40;;;5.70;;
11078;SDS011;5592;49.234;7.268;2022-08-21T04:36:24;8.63;;;6.70;;
11078;SDS011;5592;49.234;7.268;2022-08-21T04:38:49;14.97;;;6.63;;
11078;SDS011;5592;49.234;7.268;2022-08-21T04:41:15;12.40;;;6.50;;
11078;SDS011;5592;49.234;7.268;2022-08-21T04:43:41;15.57;;;6.93;;
11078;SDS011;5592;49.234;7.268;2022-08-21T04:46:07;12.67;;;7.70;;
11078;SDS011;5592;49.234;7.268;2022-08-21T04:48:33;13.80;;;6.87;;
11078;SDS011;5592;49.234;7.268;2022-08-21T04:53:43;14.27;;;7.00;;
11078;SDS011;5592;49.234;7.268;2022-08-21T04:56:18;14.27;;;6.93;;
11078;SDS011;5592;49.234;7.268;2022-08-21T04:58:51;14.40;;;7.30;;
11078;SDS011;5592;49.234;7.268;2022-08-21T05:01:21;12.50;;;7.00;;
11078;SDS011;5592;49.234;7.268;2022-08-21T05:03:50;11.43;;;6.47;;
11078;SDS011;5592;49.234;7.268;2022-08-21T05:06:19;12.77;;;6.03;;
11078;SDS011;5592;49.234;7.268;2022-08-21T05:08:46;8.33;;;5.97;;
11078;SDS011;5592;49.234;7.268;2022-08-21T05:11:13;11.97;;;6.03;;
11078;SDS011;5592;49.234;7.268;2022-08-21T05:13:39;8.87;;;6.20;;
11078;SDS011;5592;49.234;7.268;2022-08-21T05:16:08;9.53;;;6.20;;
11078;SDS011;5592;49.234;7.268;2022-08-21T05:18:33;14.73;;;6.07;;
11078;SDS011;5592;49.234;7.268;2022-08-21T05:20:59;10.30;;;5.77;;
11078;SDS011;5592;49.234;7.268;2022-08-21T05:23:25;8.50;;;5.77;;
11078;SDS011;5592;49.234;7.268;2022-08-21T05:25:51;17.83;;;6.57;;
11078;SDS011;5592;49.234;7.268;2022-08-21T05:28:18;13.97;;;6.27;;
11078;SDS011;5592;49.234;7.268;2022-08-21T05:30:44;8.50;;;5.90;;
11078;SDS011;5592;49.234;7.268;2022-08-21T05:33:10;10.50;;;6.30;;
11078;SDS011;5592;49.234;7.268;2022-08-21T05:35:37;10.73;;;6.33;;
11078;SDS011;5592;49.234;7.268;2022-08-21T05:38:03;10.00;;;6.67;;
11078;SDS011;5592;49.234;7.268;2022-08-21T05:40:30;9.93;;;6.60;;
11078;SDS011;5592;49.234;7.268;2022-08-21T05:42:56;9.23;;;4.80;;
11078;SDS011;5592;49.234;7.268;2022-08-21T05:45:29;9.07;;;5.87;;
11078;SDS011;5592;49.234;7.268;2022-08-21T05:47:56;9.20;;;5.10;;
11078;SDS011;5592;49.234;7.268;2022-08-21T05:50:21;8.10;;;5.83;;
11078;SDS011;5592;49.234;7.268;2022-08-21T05:52:47;11.90;;;5.13;;
11078;SDS011;5592;49.234;7.268;2022-08-21T05:55:13;11.40;;;4.70;;
11078;SDS011;5592;49.234;7.268;2022-08-21T05:57:39;8.10;;;4.67;;
11078;SDS011;5592;49.234;7.268;2022-08-21T06:00:08;7.20;;;4.13;;
11078;SDS011;5592;49.234;7.268;2022-08-21T06:02:37;7.03;;;4.43;;
11078;SDS011;5592;49.234;7.268;2022-08-21T06:05:03;6.13;;;4.13;;
11078;SDS011;5592;49.234;7.268;2022-08-21T06:07:32;8.63;;;3.57;;
11078;SDS011;5592;49.234;7.268;2022-08-21T06:09:58;5.53;;;3.53;;
11078;SDS011;5592;49.234;7.268;2022-08-21T06:12:23;6.60;;;3.63;;
11078;SDS011;5592;49.234;7.268;2022-08-21T06:14:50;16.93;;;3.40;;
11078;SDS011;5592;49.234;7.268;2022-08-21T06:17:16;5.90;;;3.17;;
11078;SDS011;5592;49.234;7.268;2022-08-21T06:19:50;7.00;;;4.03;;
11078;SDS011;5592;49.234;7.268;2022-08-21T06:22:19;10.80;;;3.70;;
11078;SDS011;5592;49.234;7.268;2022-08-21T06:24:44;7.87;;;3.50;;
11078;SDS011;5592;49.234;7.268;2022-08-21T06:27:10;7.37;;;3.80;;
11078;SDS011;5592;49.234;7.268;2022-08-21T06:29:36;5.60;;;3.73;;
11078;SDS011;5592;49.234;7.268;2022-08-21T06:32:05;8.30;;;3.90;;
11078;SDS011;5592;49.234;7.268;2022-08-21T06:34:37;7.13;;;4.50;;
11078;SDS011;5592;49.234;7.268;2022-08-21T06:37:03;5.50;;;3.80;;
11078;SDS011;5592;49.234;7.268;2022-08-21T06:39:29;9.30;;;4.40;;
11078;SDS011;5592;49.234;7.268;2022-08-21T06:41:56;6.00;;;3.60;;
11078;SDS011;5592;49.234;7.268;2022-08-21T06:44:21;7.17;;;3.77;;
11078;SDS011;5592;49.234;7.268;2022-08-21T06:46:47;4.80;;;3.53;;
11078;SDS011;5592;49.234;7.268;2022-08-21T06:49:13;5.83;;;3.77;;
11078;SDS011;5592;49.234;7.268;2022-08-21T06:51:39;6.27;;;3.80;;
11078;SDS011;5592;49.234;7.268;2022-08-21T06:54:05;6.10;;;3.90;;
11078;SDS011;5592;49.234;7.268;2022-08-21T06:56:30;3.87;;;3.47;;
11078;SDS011;5592;49.234;7.268;2022-08-21T06:58:58;5.23;;;3.43;;
11078;SDS011;5592;49.234;7.268;2022-08-21T07:01:24;4.40;;;4.00;;
11078;SDS011;5592;49.234;7.268;2022-08-21T07:03:51;10.30;;;4.37;;
11078;SDS011;5592;49.234;7.268;2022-08-21T07:06:20;6.85;;;3.90;;
11078;SDS011;5592;49.234;7.268;2022-08-21T07:08:46;6.93;;;3.97;;
11078;SDS011;5592;49.234;7.268;2022-08-21T07:11:17;6.18;;;3.65;;
11078;SDS011;5592;49.234;7.268;2022-08-21T07:13:43;4.00;;;3.60;;
11078;SDS011;5592;49.234;7.268;2022-08-21T07:16:09;6.20;;;3.63;;
11078;SDS011;5592;49.234;7.268;2022-08-21T07:18:35;6.00;;;3.78;;
11078;SDS011;5592;49.234;7.268;2022-08-21T07:21:02;5.88;;;3.70;;
11078;SDS011;5592;49.234;7.268;2022-08-21T07:23:30;6.10;;;3.80;;
11078;SDS011;5592;49.234;7.268;2022-08-21T07:25:58;8.02;;;3.55;;
11078;SDS011;5592;49.234;7.268;2022-08-21T07:28:25;6.82;;;3.35;;
11078;SDS011;5592;49.234;7.268;2022-08-21T07:30:53;6.78;;;3.53;;
11078;SDS011;5592;49.234;7.268;2022-08-21T07:33:20;5.80;;;3.78;;
11078;SDS011;5592;49.234;7.268;2022-08-21T07:35:46;5.38;;;3.42;;
11078;SDS011;5592;49.234;7.268;2022-08-21T07:38:14;4.70;;;3.40;;
11078;SDS011;5592;49.234;7.268;2022-08-21T07:40:40;9.50;;;3.97;;
11078;SDS011;5592;49.234;7.268;2022-08-21T07:43:06;7.07;;;3.70;;
11078;SDS011;5592;49.234;7.268;2022-08-21T07:45:31;4.70;;;3.38;;
11078;SDS011;5592;49.234;7.268;2022-08-21T07:47:57;8.55;;;4.00;;
11078;SDS011;5592;49.234;7.268;2022-08-21T07:50:23;7.75;;;3.67;;
11078;SDS011;5592;49.234;7.268;2022-08-21T07:52:49;5.65;;;3.30;;
11078;SDS011;5592;49.234;7.268;2022-08-21T07:55:16;9.43;;;3.90;;
11078;SDS011;5592;49.234;7.268;2022-08-21T07:57:43;10.57;;;3.45;;
11078;SDS011;5592;49.234;7.268;2022-08-21T08:00:12;5.03;;;3.38;;
11078;SDS011;5592;49.234;7.268;2022-08-21T08:02:45;6.32;;;4.00;;
11078;SDS011;5592;49.234;7.268;2022-08-21T08:05:23;4.85;;;3.40;;
11078;SDS011;5592;49.234;7.268;2022-08-21T08:07:51;5.38;;;3.22;;
11078;SDS011;5592;49.234;7.268;2022-08-21T08:10:17;8.70;;;4.00;;
11078;SDS011;5592;49.234;7.268;2022-08-21T08:12:44;6.50;;;3.30;;
11078;SDS011;5592;49.234;7.268;2022-08-21T08:15:11;4.70;;;3.50;;
11078;SDS011;5592;49.234;7.268;2022-08-21T08:17:39;6.18;;;3.65;;
11078;SDS011;5592;49.234;7.268;2022-08-21T08:20:06;5.75;;;3.70;;
11078;SDS011;5592;49.234;7.268;2022-08-21T08:22:36;9.20;;;3.70;;
11078;SDS011;5592;49.234;7.268;2022-08-21T08:25:03;6.05;;;3.70;;
11078;SDS011;5592;49.234;7.268;2022-08-21T08:27:30;9.80;;;3.40;;
11078;SDS011;5592;49.234;7.268;2022-08-21T08:29:56;6.25;;;3.58;;
11078;SDS011;5592;49.234;7.268;2022-08-21T08:32:22;7.55;;;3.90;;
11078;SDS011;5592;49.234;7.268;2022-08-21T08:34:48;5.40;;;3.53;;
11078;SDS011;5592;49.234;7.268;2022-08-21T08:37:14;5.53;;;3.40;;
11078;SDS011;5592;49.234;7.268;2022-08-21T08:39:41;5.97;;;3.17;;
11078;SDS011;5592;49.234;7.268;2022-08-21T08:42:14;5.28;;;3.45;;
11078;SDS011;5592;49.234;7.268;2022-08-21T08:44:55;3.83;;;3.03;;
11078;SDS011;5592;49.234;7.268;2022-08-21T08:47:25;7.88;;;3.53;;
11078;SDS011;5592;49.234;7.268;2022-08-21T08:49:58;6.20;;;3.63;;
11078;SDS011;5592;49.234;7.268;2022-08-21T08:52:29;7.15;;;3.25;;
11078;SDS011;5592;49.234;7.268;2022-08-21T08:55:12;8.00;;;4.00;;
11078;SDS011;5592;49.234;7.268;2022-08-21T08:57:58;8.60;;;4.03;;
11078;SDS011;5592;49.234;7.268;2022-08-21T09:00:24;5.00;;;3.25;;
11078;SDS011;5592;49.234;7.268;2022-08-21T09:02:54;6.00;;;3.42;;
11078;SDS011;5592;49.234;7.268;2022-08-21T09:05:23;3.90;;;2.83;;
11078;SDS011;5592;49.234;7.268;2022-08-21T09:24:00;10.38;;;3.78;;
11078;SDS011;5592;49.234;7.268;2022-08-21T09:26:35;7.82;;;3.25;;
11078;SDS011;5592;49.234;7.268;2022-08-21T09:29:12;8.85;;;3.42;;
11078;SDS011;5592;49.234;7.268;2022-08-21T09:31:48;9.90;;;3.33;;
11078;SDS011;5592;49.234;7.268;2022-08-21T09:34:23;8.02;;;3.47;;
11078;SDS011;5592;49.234;7.268;2022-08-21T09:36:50;7.57;;;3.38;;
11078;SDS011;5592;49.234;7.268;2022-08-21T09:39:23;5.43;;;3.40;;
11078;SDS011;5592;49.234;7.268;2022-08-21T09:42:05;5.63;;;3.42;;
11078;SDS011;5592;49.234;7.268;2022-08-21T09:44:34;6.32;;;3.20;;
11078;SDS011;5592;49.234;7.268;2022-08-21T09:47:05;10.60;;;4.38;;
11078;SDS011;5592;49.234;7.268;2022-08-21T09:49:33;6.22;;;3.10;;
11078;SDS011;5592;49.234;7.268;2022-08-21T09:52:04;5.63;;;3.47;;
11078;SDS011;5592;49.234;7.268;2022-08-21T09:54:41;5.95;;;3.58;;
11078;SDS011;5592;49.234;7.268;2022-08-21T09:57:12;7.22;;;2.78;;
11078;SDS011;5592;49.234;7.268;2022-08-21T10:00:18;6.13;;;2.70;;
11078;SDS011;5592;49.234;7.268;2022-08-21T10:02:49;6.32;;;3.13;;
11078;SDS011;5592;49.234;7.268;2022-08-21T10:05:19;4.45;;;2.60;;
11078;SDS011;5592;49.234;7.268;2022-08-21T10:07:47;7.50;;;3.67;;
11078;SDS011;5592;49.234;7.268;2022-08-21T10:10:18;4.47;;;2.63;;
11078;SDS011;5592;49.234;7.268;2022-08-21T10:13:14;4.90;;;3.35;;
11078;SDS011;5592;49.234;7.268;2022-08-21T10:18:40;6.43;;;2.80;;
11078;SDS011;5592;49.234;7.268;2022-08-21T10:26:59;7.85;;;3.00;;
11078;SDS011;5592;49.234;7.268;2022-08-21T10:35:14;7.18;;;3.10;;
11078;SDS011;5592;49.234;7.268;2022-08-21T10:48:29;5.97;;;3.03;;
11078;SDS011;5592;49.234;7.268;2022-08-21T10:51:13;3.65;;;2.85;;
11078;SDS011;5592;49.234;7.268;2022-08-21T10:53:55;6.45;;;3.35;;
11078;SDS011;5592;49.234;7.268;2022-08-21T10:56:43;10.52;;;2.90;;
11078;SDS011;5592;49.234;7.268;2022-08-21T11:01:54;8.55;;;3.20;;
11078;SDS011;5592;49.234;7.268;2022-08-21T11:04:48;7.17;;;2.53;;
11078;SDS011;5592;49.234;7.268;2022-08-21T11:07:55;5.67;;;2.73;;
11078;SDS011;5592;49.234;7.268;2022-08-21T11:10:33;5.23;;;2.57;;
11078;SDS011;5592;49.234;7.268;2022-08-21T11:13:14;5.17;;;2.67;;
11078;SDS011;5592;49.234;7.268;2022-08-21T11:16:18;8.33;;;2.43;;
11078;SDS011;5592;49.234;7.268;2022-08-21T11:18:54;7.73;;;3.20;;
11078;SDS011;5592;49.234;7.268;2022-08-21T11:21:42;5.00;;;2.60;;
11078;SDS011;5592;49.234;7.268;2022-08-21T11:27:03;4.73;;;3.00;;
11078;SDS011;5592;49.234;7.268;2022-08-21T11:29:40;4.93;;;2.63;;
11078;SDS011;5592;49.234;7.268;2022-08-21T11:35:01;5.93;;;2.80;;
11078;SDS011;5592;49.234;7.268;2022-08-21T11:43:39;6.10;;;2.40;;
11078;SDS011;5592;49.234;7.268;2022-08-21T11:52:25;5.33;;;2.43;;
11078;SDS011;5592;49.234;7.268;2022-08-21T11:55:23;8.87;;;2.90;;
11078;SDS011;5592;49.234;7.268;2022-08-21T11:58:06;6.03;;;2.80;;
11078;SDS011;5592;49.234;7.268;2022-08-21T12:00:38;6.07;;;2.53;;
11078;SDS011;5592;49.234;7.268;2022-08-21T12:03:28;5.30;;;2.70;;
11078;SDS011;5592;49.234;7.268;2022-08-21T12:06:04;6.20;;;2.77;;
11078;SDS011;5592;49.234;7.268;2022-08-21T12:08:40;4.83;;;2.40;;
11078;SDS011;5592;49.234;7.268;2022-08-21T12:16:35;8.00;;;2.30;;
11078;SDS011;5592;49.234;7.268;2022-08-21T12:19:07;4.00;;;2.60;;
11078;SDS011;5592;49.234;7.268;2022-08-21T12:21:58;5.07;;;2.50;;
11078;SDS011;5592;49.234;7.268;2022-08-21T12:24:35;10.93;;;4.07;;
11078;SDS011;5592;49.234;7.268;2022-08-21T12:30:06;4.30;;;2.33;;
11078;SDS011;5592;49.234;7.268;2022-08-21T12:33:00;5.43;;;2.90;;
11078;SDS011;5592;49.234;7.268;2022-08-21T12:35:37;4.90;;;2.10;;
11078;SDS011;5592;49.234;7.268;2022-08-21T12:40:55;4.93;;;2.60;;
11078;SDS011;5592;49.234;7.268;2022-08-21T12:43:34;7.17;;;2.93;;
11078;SDS011;5592;49.234;7.268;2022-08-21T12:46:03;4.03;;;2.27;;
11078;SDS011;5592;49.234;7.268;2022-08-21T12:48:33;4.40;;;2.07;;
11078;SDS011;5592;49.234;7.268;2022-08-21T12:51:16;4.30;;;2.43;;
11078;SDS011;5592;49.234;7.268;2022-08-21T12:53:58;7.10;;;2.40;;
11078;SDS011;5592;49.234;7.268;2022-08-21T12:56:26;6.10;;;2.47;;
11078;SDS011;5592;49.234;7.268;2022-08-21T12:58:56;7.60;;;2.93;;
11078;SDS011;5592;49.234;7.268;2022-08-21T13:04:37;5.63;;;2.20;;
11078;SDS011;5592;49.234;7.268;2022-08-21T13:07:09;6.20;;;2.60;;
11078;SDS011;5592;49.234;7.268;2022-08-21T13:09:47;3.77;;;2.00;;
11078;SDS011;5592;49.234;7.268;2022-08-21T13:12:16;4.47;;;2.40;;
11078;SDS011;5592;49.234;7.268;2022-08-21T13:14:44;4.57;;;2.43;;
11078;SDS011;5592;49.234;7.268;2022-08-21T13:17:14;8.80;;;3.50;;
11078;SDS011;5592;49.234;7.268;2022-08-21T13:22:28;4.67;;;2.17;;
11078;SDS011;5592;49.234;7.268;2022-08-21T13:24:55;8.40;;;2.70;;
11078;SDS011;5592;49.234;7.268;2022-08-21T13:27:26;7.30;;;2.53;;
11078;SDS011;5592;49.234;7.268;2022-08-21T13:30:02;8.90;;;2.67;;
11078;SDS011;5592;49.234;7.268;2022-08-21T13:32:32;4.43;;;2.00;;
11078;SDS011;5592;49.234;7.268;2022-08-21T13:35:16;4.10;;;2.53;;
11078;SDS011;5592;49.234;7.268;2022-08-21T13:37:45;4.17;;;2.50;;
11078;SDS011;5592;49.234;7.268;2022-08-21T13:40:17;3.13;;;1.90;;
11078;SDS011;5592;49.234;7.268;2022-08-21T13:42:47;5.00;;;2.60;;
11078;SDS011;5592;49.234;7.268;2022-08-21T13:45:16;3.87;;;2.77;;
11078;SDS011;5592;49.234;7.268;2022-08-21T13:47:50;7.90;;;3.00;;
11078;SDS011;5592;49.234;7.268;2022-08-21T13:50:17;7.63;;;2.77;;
11078;SDS011;5592;49.234;7.268;2022-08-21T13:52:55;4.17;;;1.93;;
11078;SDS011;5592;49.234;7.268;2022-08-21T13:55:33;3.47;;;2.40;;
11078;SDS011;5592;49.234;7.268;2022-08-21T13:58:04;4.07;;;2.70;;
11078;SDS011;5592;49.234;7.268;2022-08-21T14:00:32;4.40;;;2.33;;
11078;SDS011;5592;49.234;7.268;2022-08-21T14:03:02;2.47;;;2.00;;
11078;SDS011;5592;49.234;7.268;2022-08-21T14:05:35;5.10;;;2.43;;
11078;SDS011;5592;49.234;7.268;2022-08-21T14:08:18;4.10;;;1.97;;
11078;SDS011;5592;49.234;7.268;2022-08-21T14:10:51;4.97;;;2.53;;
11078;SDS011;5592;49.234;7.268;2022-08-21T14:16:10;5.53;;;2.87;;
11078;SDS011;5592;49.234;7.268;2022-08-21T14:18:49;4.63;;;2.40;;
11078;SDS011;5592;49.234;7.268;2022-08-21T14:21:26;5.37;;;2.50;;
11078;SDS011;5592;49.234;7.268;2022-08-21T14:24:02;3.93;;;2.20;;
11078;SDS011;5592;49.234;7.268;2022-08-21T14:26:35;3.23;;;1.93;;
11078;SDS011;5592;49.234;7.268;2022-08-21T14:29:07;4.00;;;2.40;;
11078;SDS011;5592;49.234;7.268;2022-08-21T14:31:34;3.40;;;2.30;;
11078;SDS011;5592;49.234;7.268;2022-08-21T14:34:00;3.23;;;2.27;;
11078;SDS011;5592;49.234;7.268;2022-08-21T14:36:26;7.30;;;2.50;;
11078;SDS011;5592;49.234;7.268;2022-08-21T14:38:52;4.87;;;2.40;;
11078;SDS011;5592;49.234;7.268;2022-08-21T14:41:19;4.13;;;2.60;;
11078;SDS011;5592;49.234;7.268;2022-08-21T14:43:48;4.20;;;2.37;;
11078;SDS011;5592;49.234;7.268;2022-08-21T14:46:18;6.03;;;2.40;;
11078;SDS011;5592;49.234;7.268;2022-08-21T14:48:47;3.70;;;2.37;;
11078;SDS011;5592;49.234;7.268;2022-08-21T14:51:14;4.73;;;2.60;;
11078;SDS011;5592;49.234;7.268;2022-08-21T14:53:40;9.03;;;2.47;;
11078;SDS011;5592;49.234;7.268;2022-08-21T14:56:05;5.07;;;2.17;;
11078;SDS011;5592;49.234;7.268;2022-08-21T14:58:35;7.03;;;2.90;;
11078;SDS011;5592;49.234;7.268;2022-08-21T15:01:03;4.87;;;3.10;;
11078;SDS011;5592;49.234;7.268;2022-08-21T15:03:31;8.07;;;2.80;;
11078;SDS011;5592;49.234;7.268;2022-08-21T15:05:57;4.83;;;2.33;;
11078;SDS011;5592;49.234;7.268;2022-08-21T15:08:26;3.73;;;2.60;;
11078;SDS011;5592;49.234;7.268;2022-08-21T15:10:52;5.03;;;3.00;;
11078;SDS011;5592;49.234;7.268;2022-08-21T15:13:19;5.70;;;2.67;;
11078;SDS011;5592;49.234;7.268;2022-08-21T15:15:47;8.57;;;3.63;;
11078;SDS011;5592;49.234;7.268;2022-08-21T15:18:14;3.80;;;2.70;;
11078;SDS011;5592;49.234;7.268;2022-08-21T15:20:40;5.90;;;2.53;;
11078;SDS011;5592;49.234;7.268;2022-08-21T15:23:07;4.60;;;2.90;;
11078;SDS011;5592;49.234;7.268;2022-08-21T15:25:39;4.90;;;2.57;;
11078;SDS011;5592;49.234;7.268;2022-08-21T15:28:09;4.40;;;3.10;;
11078;SDS011;5592;49.234;7.268;2022-08-21T15:30:37;8.50;;;2.87;;
11078;SDS011;5592;49.234;7.268;2022-08-21T15:33:04;4.00;;;2.80;;
11078;SDS011;5592;49.234;7.268;2022-08-21T15:35:30;6.00;;;2.80;;
11078;SDS011;5592;49.234;7.268;2022-08-21T15:37:56;6.27;;;2.57;;
11078;SDS011;5592;49.234;7.268;2022-08-21T15:40:22;5.33;;;3.30;;
11078;SDS011;5592;49.234;7.268;2022-08-21T15:42:48;4.53;;;2.80;;
11078;SDS011;5592;49.234;7.268;2022-08-21T15:45:18;7.80;;;2.60;;
11078;SDS011;5592;49.234;7.268;2022-08-21T15:47:44;3.10;;;2.73;;
11078;SDS011;5592;49.234;7.268;2022-08-21T15:50:10;5.40;;;2.40;;
11078;SDS011;5592;49.234;7.268;2022-08-21T15:52:37;5.70;;;2.90;;
11078;SDS011;5592;49.234;7.268;2022-08-21T15:55:04;4.63;;;2.80;;
11078;SDS011;5592;49.234;7.268;2022-08-21T15:57:30;6.10;;;2.73;;
11078;SDS011;5592;49.234;7.268;2022-08-21T15:59:57;5.23;;;2.63;;
11078;SDS011;5592;49.234;7.268;2022-08-21T16:02:31;7.50;;;2.60;;
11078;SDS011;5592;49.234;7.268;2022-08-21T16:04:58;5.10;;;2.30;;
11078;SDS011;5592;49.234;7.268;2022-08-21T16:07:24;9.10;;;2.77;;
11078;SDS011;5592;49.234;7.268;2022-08-21T16:09:50;4.57;;;2.97;;
11078;SDS011;5592;49.234;7.268;2022-08-21T16:12:19;5.70;;;2.77;;
11078;SDS011;5592;49.234;7.268;2022-08-21T16:14:47;6.23;;;2.60;;
11078;SDS011;5592;49.234;7.268;2022-08-21T16:17:14;4.70;;;2.60;;
11078;SDS011;5592;49.234;7.268;2022-08-21T16:19:40;5.27;;;3.10;;
11078;SDS011;5592;49.234;7.268;2022-08-21T16:22:06;4.80;;;3.20;;
11078;SDS011;5592;49.234;7.268;2022-08-21T16:24:32;5.10;;;3.40;;
11078;SDS011;5592;49.234;7.268;2022-08-21T16:26:58;5.60;;;2.40;;
11078;SDS011;5592;49.234;7.268;2022-08-21T16:29:24;5.90;;;3.10;;
11078;SDS011;5592;49.234;7.268;2022-08-21T16:31:53;6.60;;;2.87;;
11078;SDS011;5592;49.234;7.268;2022-08-21T16:34:19;5.20;;;2.60;;
11078;SDS011;5592;49.234;7.268;2022-08-21T16:36:45;5.37;;;2.93;;